Terminal Aerodrome Forecast
Issued by NWS Jacksonville, FL

Home | Current Version | Previous Version | Text Only | Print | Product List | Glossary On
Versions: 1 2 3 4 5 6 7 8 9 10 11 12 13 14 15 16 17 18
000
FTUS42 KJAX 272339
TAFSSI
TAF
KSSI 272339Z 2800/2824 09004KT P6SM FEW030 SCT250
     FM281400 23007KT P6SM SCT025 BKN250
     FM281900 18008KT P6SM VCTS SCT030CB BKN050=

USA.gov is the U.S. government's official web portal to all federal, state and local government web resources and services.